sensor_id;sensor_type;location;lat;lon;timestamp;temperature;humidity
17687;DHT22;8962;52.538;13.266;2023-07-13T00:01:06;19.20;1.00
17687;DHT22;8962;52.538;13.266;2023-07-13T00:03:33;19.20;1.00
17687;DHT22;8962;52.538;13.266;2023-07-13T00:06:01;19.20;1.00
17687;DHT22;8962;52.538;13.266;2023-07-13T00:08:30;19.10;1.00
17687;DHT22;8962;52.538;13.266;2023-07-13T00:10:58;19.00;1.00
17687;DHT22;8962;52.538;13.266;2023-07-13T00:13:25;19.00;1.00
17687;DHT22;8962;52.538;13.266;2023-07-13T00:15:52;18.90;1.00
17687;DHT22;8962;52.538;13.266;2023-07-13T00:18:23;18.90;1.00
17687;DHT22;8962;52.538;13.266;2023-07-13T00:20:50;18.90;1.00
17687;DHT22;8962;52.538;13.266;2023-07-13T00:23:17;18.90;1.00
17687;DHT22;8962;52.538;13.266;2023-07-13T00:25:45;18.80;1.00
17687;DHT22;8962;52.538;13.266;2023-07-13T00:28:12;18.80;1.00
17687;DHT22;8962;52.538;13.266;2023-07-13T00:30:39;18.80;1.00
17687;DHT22;8962;52.538;13.266;2023-07-13T00:33:06;18.90;1.00
17687;DHT22;8962;52.538;13.266;2023-07-13T00:35:35;18.80;1.00
17687;DHT22;8962;52.538;13.266;2023-07-13T00:38:03;18.80;1.00
17687;DHT22;8962;52.538;13.266;2023-07-13T00:40:30;18.80;1.00
17687;DHT22;8962;52.538;13.266;2023-07-13T00:42:59;18.80;1.00
17687;DHT22;8962;52.538;13.266;2023-07-13T00:48:34;18.70;1.00
17687;DHT22;8962;52.538;13.266;2023-07-13T00:51:05;18.70;1.00
17687;DHT22;8962;52.538;13.266;2023-07-13T00:53:33;18.70;1.00
17687;DHT22;8962;52.538;13.266;2023-07-13T00:56:01;18.60;1.00
17687;DHT22;8962;52.538;13.266;2023-07-13T00:58:30;18.60;1.00
17687;DHT22;8962;52.538;13.266;2023-07-13T01:00:57;18.60;1.00
17687;DHT22;8962;52.538;13.266;2023-07-13T01:03:24;18.60;1.00
17687;DHT22;8962;52.538;13.266;2023-07-13T01:05:53;18.50;1.00
17687;DHT22;8962;52.538;13.266;2023-07-13T01:08:22;18.50;1.00
17687;DHT22;8962;52.538;13.266;2023-07-13T01:10:53;18.40;1.00
17687;DHT22;8962;52.538;13.266;2023-07-13T01:13:21;18.50;1.00
17687;DHT22;8962;52.538;13.266;2023-07-13T01:15:51;18.40;1.00
17687;DHT22;8962;52.538;13.266;2023-07-13T01:18:21;18.40;1.00
17687;DHT22;8962;52.538;13.266;2023-07-13T01:20:55;18.40;1.00
17687;DHT22;8962;52.538;13.266;2023-07-13T01:23:24;18.30;1.00
17687;DHT22;8962;52.538;13.266;2023-07-13T01:25:54;18.30;1.00
17687;DHT22;8962;52.538;13.266;2023-07-13T01:28:22;18.30;1.00
17687;DHT22;8962;52.538;13.266;2023-07-13T01:30:53;18.40;1.00
17687;DHT22;8962;52.538;13.266;2023-07-13T01:33:22;18.30;1.00
17687;DHT22;8962;52.538;13.266;2023-07-13T01:35:51;18.30;1.00
17687;DHT22;8962;52.538;13.266;2023-07-13T01:38:22;18.20;1.00
17687;DHT22;8962;52.538;13.266;2023-07-13T01:40:50;18.20;1.00
17687;DHT22;8962;52.538;13.266;2023-07-13T01:43:17;18.20;1.00
17687;DHT22;8962;52.538;13.266;2023-07-13T01:45:45;18.20;1.00
17687;DHT22;8962;52.538;13.266;2023-07-13T01:48:13;18.10;1.00
17687;DHT22;8962;52.538;13.266;2023-07-13T01:50:41;18.10;1.00
17687;DHT22;8962;52.538;13.266;2023-07-13T01:53:08;18.00;1.00
17687;DHT22;8962;52.538;13.266;2023-07-13T01:55:37;18.00;1.00
17687;DHT22;8962;52.538;13.266;2023-07-13T01:58:04;18.00;1.00
17687;DHT22;8962;52.538;13.266;2023-07-13T02:00:32;17.90;1.00
17687;DHT22;8962;52.538;13.266;2023-07-13T02:03:01;17.90;1.00
17687;DHT22;8962;52.538;13.266;2023-07-13T02:05:31;17.90;1.00
17687;DHT22;8962;52.538;13.266;2023-07-13T02:07:59;17.90;1.00
17687;DHT22;8962;52.538;13.266;2023-07-13T02:10:26;17.90;1.00
17687;DHT22;8962;52.538;13.266;2023-07-13T02:12:55;17.90;1.00
17687;DHT22;8962;52.538;13.266;2023-07-13T02:15:22;17.80;1.00
17687;DHT22;8962;52.538;13.266;2023-07-13T02:17:50;17.70;1.00
17687;DHT22;8962;52.538;13.266;2023-07-13T02:20:17;17.70;1.00
17687;DHT22;8962;52.538;13.266;2023-07-13T02:22:44;17.60;1.00
17687;DHT22;8962;52.538;13.266;2023-07-13T02:25:11;17.70;1.00
17687;DHT22;8962;52.538;13.266;2023-07-13T02:27:40;17.70;1.00
17687;DHT22;8962;52.538;13.266;2023-07-13T02:30:10;17.60;1.00
17687;DHT22;8962;52.538;13.266;2023-07-13T02:32:38;17.60;1.00
17687;DHT22;8962;52.538;13.266;2023-07-13T02:35:05;17.60;1.00
17687;DHT22;8962;52.538;13.266;2023-07-13T02:37:33;17.60;1.00
17687;DHT22;8962;52.538;13.266;2023-07-13T02:40:00;17.60;1.00
17687;DHT22;8962;52.538;13.266;2023-07-13T02:42:29;17.60;1.00
17687;DHT22;8962;52.538;13.266;2023-07-13T02:44:56;17.50;1.00
17687;DHT22;8962;52.538;13.266;2023-07-13T02:47:25;17.50;1.00
17687;DHT22;8962;52.538;13.266;2023-07-13T02:49:52;17.50;1.00
17687;DHT22;8962;52.538;13.266;2023-07-13T02:52:20;17.50;1.00
17687;DHT22;8962;52.538;13.266;2023-07-13T02:54:47;17.50;1.00
17687;DHT22;8962;52.538;13.266;2023-07-13T02:57:14;17.50;1.00
17687;DHT22;8962;52.538;13.266;2023-07-13T02:59:42;17.50;1.00
17687;DHT22;8962;52.538;13.266;2023-07-13T03:02:09;17.50;1.00
17687;DHT22;8962;52.538;13.266;2023-07-13T03:04:38;17.50;1.00
17687;DHT22;8962;52.538;13.266;2023-07-13T03:07:07;17.50;1.00
17687;DHT22;8962;52.538;13.266;2023-07-13T03:09:36;17.50;1.00
17687;DHT22;8962;52.538;13.266;2023-07-13T03:12:07;17.60;1.00
17687;DHT22;8962;52.538;13.266;2023-07-13T03:14:35;17.60;1.00
17687;DHT22;8962;52.538;13.266;2023-07-13T03:17:05;17.60;1.00
17687;DHT22;8962;52.538;13.266;2023-07-13T03:19:38;17.50;1.00
17687;DHT22;8962;52.538;13.266;2023-07-13T03:22:06;17.40;2.50
17687;DHT22;8962;52.538;13.266;2023-07-13T03:24:34;17.40;9.20
17687;DHT22;8962;52.538;13.266;2023-07-13T03:27:05;17.40;11.50
17687;DHT22;8962;52.538;13.266;2023-07-13T03:29:34;17.50;4.90
17687;DHT22;8962;52.538;13.266;2023-07-13T03:32:02;17.60;1.00
17687;DHT22;8962;52.538;13.266;2023-07-13T03:34:30;17.60;1.00
17687;DHT22;8962;52.538;13.266;2023-07-13T03:37:00;17.70;1.00
17687;DHT22;8962;52.538;13.266;2023-07-13T03:39:27;17.70;1.00
17687;DHT22;8962;52.538;13.266;2023-07-13T03:41:57;17.70;1.00
17687;DHT22;8962;52.538;13.266;2023-07-13T03:44:24;17.80;1.00
17687;DHT22;8962;52.538;13.266;2023-07-13T03:46:54;17.90;1.00
17687;DHT22;8962;52.538;13.266;2023-07-13T03:49:23;17.90;1.00
17687;DHT22;8962;52.538;13.266;2023-07-13T03:51:50;18.00;1.00
17687;DHT22;8962;52.538;13.266;2023-07-13T03:54:19;17.90;1.00
17687;DHT22;8962;52.538;13.266;2023-07-13T03:56:46;17.90;1.00
17687;DHT22;8962;52.538;13.266;2023-07-13T03:59:13;17.80;1.00
17687;DHT22;8962;52.538;13.266;2023-07-13T04:01:40;17.80;1.00
17687;DHT22;8962;52.538;13.266;2023-07-13T04:04:07;17.90;1.00
17687;DHT22;8962;52.538;13.266;2023-07-13T04:06:35;17.90;1.00
17687;DHT22;8962;52.538;13.266;2023-07-13T04:09:04;17.90;1.00
17687;DHT22;8962;52.538;13.266;2023-07-13T04:11:34;17.90;1.00
17687;DHT22;8962;52.538;13.266;2023-07-13T04:14:02;17.90;1.00
17687;DHT22;8962;52.538;13.266;2023-07-13T04:16:29;17.90;1.00
17687;DHT22;8962;52.538;13.266;2023-07-13T04:18:57;17.90;1.00
17687;DHT22;8962;52.538;13.266;2023-07-13T04:21:25;17.90;1.00
17687;DHT22;8962;52.538;13.266;2023-07-13T04:23:53;17.90;1.00
17687;DHT22;8962;52.538;13.266;2023-07-13T04:26:20;17.90;1.00
17687;DHT22;8962;52.538;13.266;2023-07-13T04:28:49;18.00;1.00
17687;DHT22;8962;52.538;13.266;2023-07-13T04:31:18;18.00;1.00
17687;DHT22;8962;52.538;13.266;2023-07-13T04:33:45;18.10;1.00
17687;DHT22;8962;52.538;13.266;2023-07-13T04:36:12;18.10;1.00
17687;DHT22;8962;52.538;13.266;2023-07-13T04:38:39;18.10;1.00
17687;DHT22;8962;52.538;13.266;2023-07-13T04:41:07;18.10;1.00
17687;DHT22;8962;52.538;13.266;2023-07-13T04:43:35;18.10;1.00
17687;DHT22;8962;52.538;13.266;2023-07-13T04:46:09;18.20;1.00
17687;DHT22;8962;52.538;13.266;2023-07-13T04:48:37;18.20;1.00
17687;DHT22;8962;52.538;13.266;2023-07-13T04:51:04;18.20;1.00
17687;DHT22;8962;52.538;13.266;2023-07-13T04:53:32;18.20;1.00
17687;DHT22;8962;52.538;13.266;2023-07-13T04:56:00;18.20;1.00
17687;DHT22;8962;52.538;13.266;2023-07-13T04:58:27;18.30;1.00
17687;DHT22;8962;52.538;13.266;2023-07-13T05:01:00;18.30;1.00
17687;DHT22;8962;52.538;13.266;2023-07-13T05:03:33;18.40;1.00
17687;DHT22;8962;52.538;13.266;2023-07-13T05:06:02;18.50;1.00
17687;DHT22;8962;52.538;13.266;2023-07-13T05:08:29;18.50;1.00
17687;DHT22;8962;52.538;13.266;2023-07-13T05:10:56;18.60;1.00
17687;DHT22;8962;52.538;13.266;2023-07-13T05:13:25;18.60;1.00
17687;DHT22;8962;52.538;13.266;2023-07-13T05:15:56;18.60;1.00
17687;DHT22;8962;52.538;13.266;2023-07-13T05:18:24;18.70;1.00
17687;DHT22;8962;52.538;13.266;2023-07-13T05:21:01;18.80;1.00
17687;DHT22;8962;52.538;13.266;2023-07-13T05:23:28;18.80;1.00
17687;DHT22;8962;52.538;13.266;2023-07-13T05:25:55;18.90;1.00
17687;DHT22;8962;52.538;13.266;2023-07-13T05:28:23;19.00;1.00
17687;DHT22;8962;52.538;13.266;2023-07-13T05:30:50;19.00;1.00
17687;DHT22;8962;52.538;13.266;2023-07-13T05:33:18;19.00;1.00
17687;DHT22;8962;52.538;13.266;2023-07-13T05:35:46;18.90;1.00
17687;DHT22;8962;52.538;13.266;2023-07-13T05:38:14;18.80;1.00
17687;DHT22;8962;52.538;13.266;2023-07-13T05:40:43;18.80;1.00
17687;DHT22;8962;52.538;13.266;2023-07-13T05:43:10;18.90;1.00
17687;DHT22;8962;52.538;13.266;2023-07-13T05:45:37;19.00;1.00
17687;DHT22;8962;52.538;13.266;2023-07-13T05:48:05;19.10;1.00
17687;DHT22;8962;52.538;13.266;2023-07-13T05:50:32;19.30;1.00
17687;DHT22;8962;52.538;13.266;2023-07-13T05:52:59;19.50;1.00
17687;DHT22;8962;52.538;13.266;2023-07-13T05:55:28;19.80;1.00
17687;DHT22;8962;52.538;13.266;2023-07-13T05:57:55;20.00;1.00
17687;DHT22;8962;52.538;13.266;2023-07-13T06:00:23;20.20;1.00
17687;DHT22;8962;52.538;13.266;2023-07-13T06:02:51;20.50;1.00
17687;DHT22;8962;52.538;13.266;2023-07-13T06:05:18;20.60;1.00
17687;DHT22;8962;52.538;13.266;2023-07-13T06:07:45;20.80;1.00
17687;DHT22;8962;52.538;13.266;2023-07-13T06:10:13;20.80;99.90
17687;DHT22;8962;52.538;13.266;2023-07-13T06:12:42;20.70;99.90
17687;DHT22;8962;52.538;13.266;2023-07-13T06:15:09;20.70;99.90
17687;DHT22;8962;52.538;13.266;2023-07-13T06:17:37;20.70;99.90
17687;DHT22;8962;52.538;13.266;2023-07-13T06:20:05;20.80;99.90
17687;DHT22;8962;52.538;13.266;2023-07-13T06:22:32;20.80;99.90
17687;DHT22;8962;52.538;13.266;2023-07-13T06:25:00;20.80;99.90
17687;DHT22;8962;52.538;13.266;2023-07-13T06:27:27;20.70;99.90
17687;DHT22;8962;52.538;13.266;2023-07-13T06:29:55;20.70;99.90
17687;DHT22;8962;52.538;13.266;2023-07-13T06:32:23;20.70;99.90
17687;DHT22;8962;52.538;13.266;2023-07-13T06:34:50;20.70;99.90
17687;DHT22;8962;52.538;13.266;2023-07-13T06:37:17;20.80;99.90
17687;DHT22;8962;52.538;13.266;2023-07-13T06:39:44;20.90;99.90
17687;DHT22;8962;52.538;13.266;2023-07-13T06:42:11;21.00;99.90
17687;DHT22;8962;52.538;13.266;2023-07-13T06:44:39;21.10;54.90
17687;DHT22;8962;52.538;13.266;2023-07-13T06:47:07;21.20;5.20
17687;DHT22;8962;52.538;13.266;2023-07-13T06:49:35;21.40;1.00
17687;DHT22;8962;52.538;13.266;2023-07-13T06:52:02;21.50;1.00
17687;DHT22;8962;52.538;13.266;2023-07-13T06:54:29;21.50;99.90
17687;DHT22;8962;52.538;13.266;2023-07-13T06:56:56;21.50;1.00
17687;DHT22;8962;52.538;13.266;2023-07-13T06:59:24;21.70;99.90
17687;DHT22;8962;52.538;13.266;2023-07-13T07:01:51;21.80;99.90
17687;DHT22;8962;52.538;13.266;2023-07-13T07:04:19;21.80;99.90
17687;DHT22;8962;52.538;13.266;2023-07-13T07:06:46;22.10;1.00
17687;DHT22;8962;52.538;13.266;2023-07-13T07:09:14;22.30;1.00
17687;DHT22;8962;52.538;13.266;2023-07-13T07:11:42;22.50;1.00
17687;DHT22;8962;52.538;13.266;2023-07-13T07:14:11;22.70;1.00
17687;DHT22;8962;52.538;13.266;2023-07-13T07:16:38;22.90;1.00
17687;DHT22;8962;52.538;13.266;2023-07-13T07:19:05;23.10;99.90
17687;DHT22;8962;52.538;13.266;2023-07-13T07:21:34;23.30;1.00
17687;DHT22;8962;52.538;13.266;2023-07-13T07:24:01;23.50;1.00
17687;DHT22;8962;52.538;13.266;2023-07-13T07:26:30;23.40;99.90
17687;DHT22;8962;52.538;13.266;2023-07-13T07:28:57;23.50;1.00
17687;DHT22;8962;52.538;13.266;2023-07-13T07:31:24;23.40;99.90
17687;DHT22;8962;52.538;13.266;2023-07-13T07:33:51;23.50;99.90
17687;DHT22;8962;52.538;13.266;2023-07-13T07:36:18;23.70;1.00
17687;DHT22;8962;52.538;13.266;2023-07-13T07:38:47;23.80;1.00
17687;DHT22;8962;52.538;13.266;2023-07-13T07:41:14;23.90;1.00
17687;DHT22;8962;52.538;13.266;2023-07-13T07:43:42;23.90;1.00
17687;DHT22;8962;52.538;13.266;2023-07-13T07:46:09;24.00;99.90
17687;DHT22;8962;52.538;13.266;2023-07-13T07:48:39;24.10;99.90
17687;DHT22;8962;52.538;13.266;2023-07-13T07:51:06;24.00;1.00
17687;DHT22;8962;52.538;13.266;2023-07-13T07:53:33;23.80;99.90
17687;DHT22;8962;52.538;13.266;2023-07-13T07:56:03;23.70;1.00
17687;DHT22;8962;52.538;13.266;2023-07-13T07:58:30;23.60;1.00
17687;DHT22;8962;52.538;13.266;2023-07-13T08:01:04;23.90;1.00
17687;DHT22;8962;52.538;13.266;2023-07-13T08:03:32;24.10;1.00
17687;DHT22;8962;52.538;13.266;2023-07-13T08:06:00;23.90;1.00
17687;DHT22;8962;52.538;13.266;2023-07-13T08:08:27;24.00;1.00
17687;DHT22;8962;52.538;13.266;2023-07-13T08:10:54;23.90;1.00
17687;DHT22;8962;52.538;13.266;2023-07-13T08:13:22;23.80;1.00
17687;DHT22;8962;52.538;13.266;2023-07-13T08:15:50;23.90;1.00
17687;DHT22;8962;52.538;13.266;2023-07-13T08:18:17;23.90;1.00
17687;DHT22;8962;52.538;13.266;2023-07-13T08:20:44;23.80;1.00
17687;DHT22;8962;52.538;13.266;2023-07-13T08:23:11;24.00;1.00
17687;DHT22;8962;52.538;13.266;2023-07-13T08:25:38;24.20;99.90
17687;DHT22;8962;52.538;13.266;2023-07-13T08:28:05;24.20;99.90
17687;DHT22;8962;52.538;13.266;2023-07-13T08:30:34;24.60;99.90
17687;DHT22;8962;52.538;13.266;2023-07-13T08:33:02;25.10;1.00
17687;DHT22;8962;52.538;13.266;2023-07-13T08:35:29;25.00;1.00
17687;DHT22;8962;52.538;13.266;2023-07-13T08:37:56;24.70;1.00
17687;DHT22;8962;52.538;13.266;2023-07-13T08:40:25;24.70;1.00
17687;DHT22;8962;52.538;13.266;2023-07-13T08:42:54;24.60;1.00
17687;DHT22;8962;52.538;13.266;2023-07-13T08:45:25;24.40;1.00
17687;DHT22;8962;52.538;13.266;2023-07-13T08:48:00;24.30;1.00
17687;DHT22;8962;52.538;13.266;2023-07-13T08:50:32;24.10;1.00
17687;DHT22;8962;52.538;13.266;2023-07-13T08:53:01;23.90;1.00
17687;DHT22;8962;52.538;13.266;2023-07-13T08:55:31;24.00;1.00
17687;DHT22;8962;52.538;13.266;2023-07-13T08:58:08;24.10;99.90
17687;DHT22;8962;52.538;13.266;2023-07-13T09:00:43;24.40;99.90
17687;DHT22;8962;52.538;13.266;2023-07-13T09:03:19;24.90;99.90
17687;DHT22;8962;52.538;13.266;2023-07-13T09:05:51;24.60;99.90
17687;DHT22;8962;52.538;13.266;2023-07-13T09:08:38;24.50;99.90
17687;DHT22;8962;52.538;13.266;2023-07-13T09:11:21;24.80;99.90
17687;DHT22;8962;52.538;13.266;2023-07-13T09:13:55;24.90;1.00
17687;DHT22;8962;52.538;13.266;2023-07-13T09:16:25;25.10;1.00
17687;DHT22;8962;52.538;13.266;2023-07-13T09:18:58;25.10;1.00
17687;DHT22;8962;52.538;13.266;2023-07-13T09:21:31;25.20;99.90
17687;DHT22;8962;52.538;13.266;2023-07-13T09:24:03;25.20;1.00
17687;DHT22;8962;52.538;13.266;2023-07-13T09:26:33;25.20;99.90
17687;DHT22;8962;52.538;13.266;2023-07-13T09:29:20;25.20;99.90
17687;DHT22;8962;52.538;13.266;2023-07-13T09:31:53;25.00;99.90
17687;DHT22;8962;52.538;13.266;2023-07-13T09:34:22;25.00;99.90
17687;DHT22;8962;52.538;13.266;2023-07-13T09:36:49;25.00;99.90
17687;DHT22;8962;52.538;13.266;2023-07-13T09:39:26;25.10;99.90
17687;DHT22;8962;52.538;13.266;2023-07-13T09:41:59;25.30;99.90
17687;DHT22;8962;52.538;13.266;2023-07-13T09:44:29;25.40;99.90
17687;DHT22;8962;52.538;13.266;2023-07-13T09:46:58;25.70;99.90
17687;DHT22;8962;52.538;13.266;2023-07-13T09:49:28;25.40;99.90
17687;DHT22;8962;52.538;13.266;2023-07-13T09:51:59;25.60;99.90
17687;DHT22;8962;52.538;13.266;2023-07-13T09:54:27;26.10;99.90
17687;DHT22;8962;52.538;13.266;2023-07-13T09:56:55;26.30;99.90
17687;DHT22;8962;52.538;13.266;2023-07-13T09:59:24;26.50;68.00
17687;DHT22;8962;52.538;13.266;2023-07-13T10:01:53;26.40;87.70
17687;DHT22;8962;52.538;13.266;2023-07-13T10:04:31;26.40;29.60
17687;DHT22;8962;52.538;13.266;2023-07-13T10:07:05;26.40;1.00
17687;DHT22;8962;52.538;13.266;2023-07-13T10:09:33;26.50;1.00
17687;DHT22;8962;52.538;13.266;2023-07-13T10:12:00;26.20;1.00
17687;DHT22;8962;52.538;13.266;2023-07-13T10:14:27;26.20;1.00
17687;DHT22;8962;52.538;13.266;2023-07-13T10:16:58;25.60;1.00
17687;DHT22;8962;52.538;13.266;2023-07-13T10:19:31;25.20;1.00
17687;DHT22;8962;52.538;13.266;2023-07-13T10:22:01;25.20;1.00
17687;DHT22;8962;52.538;13.266;2023-07-13T10:24:31;25.30;1.00
17687;DHT22;8962;52.538;13.266;2023-07-13T10:27:02;25.40;1.00
17687;DHT22;8962;52.538;13.266;2023-07-13T10:29:36;25.70;1.00
17687;DHT22;8962;52.538;13.266;2023-07-13T10:32:09;25.70;1.00
17687;DHT22;8962;52.538;13.266;2023-07-13T10:34:39;25.60;1.00
17687;DHT22;8962;52.538;13.266;2023-07-13T10:37:07;25.40;1.00
17687;DHT22;8962;52.538;13.266;2023-07-13T10:39:42;25.00;1.00
17687;DHT22;8962;52.538;13.266;2023-07-13T10:42:13;24.70;1.00
17687;DHT22;8962;52.538;13.266;2023-07-13T10:44:42;24.70;1.00
17687;DHT22;8962;52.538;13.266;2023-07-13T10:47:13;24.80;16.50
17687;DHT22;8962;52.538;13.266;2023-07-13T10:49:42;25.00;1.00
17687;DHT22;8962;52.538;13.266;2023-07-13T10:52:41;25.40;1.00
17687;DHT22;8962;52.538;13.266;2023-07-13T10:55:30;25.70;1.00
17687;DHT22;8962;52.538;13.266;2023-07-13T10:58:00;26.00;1.00
17687;DHT22;8962;52.538;13.266;2023-07-13T11:00:31;26.30;1.00
17687;DHT22;8962;52.538;13.266;2023-07-13T11:03:00;26.40;1.00
17687;DHT22;8962;52.538;13.266;2023-07-13T11:05:31;26.60;1.00
17687;DHT22;8962;52.538;13.266;2023-07-13T11:08:11;26.70;1.00
17687;DHT22;8962;52.538;13.266;2023-07-13T11:10:51;26.30;1.00
17687;DHT22;8962;52.538;13.266;2023-07-13T11:16:46;26.40;1.00
17687;DHT22;8962;52.538;13.266;2023-07-13T11:19:39;26.40;1.00
17687;DHT22;8962;52.538;13.266;2023-07-13T11:22:21;26.20;1.00
17687;DHT22;8962;52.538;13.266;2023-07-13T11:24:51;26.30;1.00
17687;DHT22;8962;52.538;13.266;2023-07-13T11:27:25;26.20;1.00
17687;DHT22;8962;52.538;13.266;2023-07-13T11:30:08;26.30;1.00
17687;DHT22;8962;52.538;13.266;2023-07-13T11:32:36;26.30;1.00
17687;DHT22;8962;52.538;13.266;2023-07-13T11:35:03;26.40;1.00
17687;DHT22;8962;52.538;13.266;2023-07-13T11:37:32;26.40;1.00
17687;DHT22;8962;52.538;13.266;2023-07-13T11:39:59;26.60;1.00
17687;DHT22;8962;52.538;13.266;2023-07-13T11:42:27;27.20;1.00
17687;DHT22;8962;52.538;13.266;2023-07-13T11:44:54;27.90;1.00
17687;DHT22;8962;52.538;13.266;2023-07-13T11:47:24;27.00;1.00
17687;DHT22;8962;52.538;13.266;2023-07-13T11:49:54;26.60;1.00
17687;DHT22;8962;52.538;13.266;2023-07-13T11:52:27;27.30;1.00
17687;DHT22;8962;52.538;13.266;2023-07-13T11:55:03;27.80;1.00
17687;DHT22;8962;52.538;13.266;2023-07-13T11:57:40;27.70;1.00
17687;DHT22;8962;52.538;13.266;2023-07-13T12:00:13;28.60;1.00
17687;DHT22;8962;52.538;13.266;2023-07-13T12:02:43;29.60;1.00
17687;DHT22;8962;52.538;13.266;2023-07-13T12:05:13;30.50;1.00
17687;DHT22;8962;52.538;13.266;2023-07-13T12:07:41;30.40;1.00
17687;DHT22;8962;52.538;13.266;2023-07-13T12:10:18;30.20;1.00
17687;DHT22;8962;52.538;13.266;2023-07-13T12:12:48;30.40;1.00
17687;DHT22;8962;52.538;13.266;2023-07-13T12:15:15;30.80;1.00
17687;DHT22;8962;52.538;13.266;2023-07-13T12:17:42;30.40;1.00
17687;DHT22;8962;52.538;13.266;2023-07-13T12:20:20;30.40;1.00
17687;DHT22;8962;52.538;13.266;2023-07-13T12:22:49;30.50;1.00
17687;DHT22;8962;52.538;13.266;2023-07-13T12:25:19;31.00;1.00
17687;DHT22;8962;52.538;13.266;2023-07-13T12:27:50;31.40;1.00
17687;DHT22;8962;52.538;13.266;2023-07-13T12:30:26;31.20;1.00
17687;DHT22;8962;52.538;13.266;2023-07-13T12:32:59;32.00;1.00
17687;DHT22;8962;52.538;13.266;2023-07-13T12:35:28;32.20;1.00
17687;DHT22;8962;52.538;13.266;2023-07-13T12:38:01;32.80;1.00
17687;DHT22;8962;52.538;13.266;2023-07-13T12:40:33;31.90;1.00
17687;DHT22;8962;52.538;13.266;2023-07-13T12:43:02;32.20;1.00
17687;DHT22;8962;52.538;13.266;2023-07-13T12:45:30;32.30;1.00
17687;DHT22;8962;52.538;13.266;2023-07-13T12:47:59;32.30;1.00
17687;DHT22;8962;52.538;13.266;2023-07-13T12:50:34;31.90;1.00
17687;DHT22;8962;52.538;13.266;2023-07-13T12:53:05;32.00;1.00
17687;DHT22;8962;52.538;13.266;2023-07-13T12:55:42;32.00;1.00
17687;DHT22;8962;52.538;13.266;2023-07-13T12:58:16;31.00;1.00
17687;DHT22;8962;52.538;13.266;2023-07-13T13:00:49;31.70;1.00
17687;DHT22;8962;52.538;13.266;2023-07-13T13:03:22;31.60;1.00
17687;DHT22;8962;52.538;13.266;2023-07-13T13:05:57;32.30;1.00
17687;DHT22;8962;52.538;13.266;2023-07-13T13:08:26;32.70;1.00
17687;DHT22;8962;52.538;13.266;2023-07-13T13:10:54;31.70;1.00
17687;DHT22;8962;52.538;13.266;2023-07-13T13:13:22;32.30;1.00
17687;DHT22;8962;52.538;13.266;2023-07-13T13:15:50;33.50;1.00
17687;DHT22;8962;52.538;13.266;2023-07-13T13:18:18;34.10;1.00
17687;DHT22;8962;52.538;13.266;2023-07-13T13:20:46;33.60;1.00
17687;DHT22;8962;52.538;13.266;2023-07-13T13:23:14;33.80;1.00
17687;DHT22;8962;52.538;13.266;2023-07-13T13:25:43;34.00;1.00
17687;DHT22;8962;52.538;13.266;2023-07-13T13:28:18;33.90;1.00
17687;DHT22;8962;52.538;13.266;2023-07-13T13:30:46;33.70;1.00
17687;DHT22;8962;52.538;13.266;2023-07-13T13:33:16;32.90;1.00
17687;DHT22;8962;52.538;13.266;2023-07-13T13:35:43;32.30;1.00
17687;DHT22;8962;52.538;13.266;2023-07-13T13:38:14;32.00;1.00
17687;DHT22;8962;52.538;13.266;2023-07-13T13:40:43;32.70;1.00
17687;DHT22;8962;52.538;13.266;2023-07-13T13:43:20;33.70;1.00
17687;DHT22;8962;52.538;13.266;2023-07-13T13:45:53;33.70;1.00
17687;DHT22;8962;52.538;13.266;2023-07-13T13:48:30;33.20;1.00
17687;DHT22;8962;52.538;13.266;2023-07-13T13:50:58;32.10;1.00
17687;DHT22;8962;52.538;13.266;2023-07-13T13:53:27;32.10;1.00
17687;DHT22;8962;52.538;13.266;2023-07-13T13:55:54;31.60;1.00
17687;DHT22;8962;52.538;13.266;2023-07-13T13:58:26;32.00;1.00
17687;DHT22;8962;52.538;13.266;2023-07-13T14:00:53;32.20;1.00
17687;DHT22;8962;52.538;13.266;2023-07-13T14:03:21;32.60;1.00
17687;DHT22;8962;52.538;13.266;2023-07-13T14:05:48;33.10;1.00
17687;DHT22;8962;52.538;13.266;2023-07-13T14:08:19;33.60;1.00
17687;DHT22;8962;52.538;13.266;2023-07-13T14:10:48;33.20;1.00
17687;DHT22;8962;52.538;13.266;2023-07-13T14:13:18;33.00;1.00
17687;DHT22;8962;52.538;13.266;2023-07-13T14:15:47;33.30;1.00
17687;DHT22;8962;52.538;13.266;2023-07-13T14:18:14;33.10;1.00
17687;DHT22;8962;52.538;13.266;2023-07-13T14:20:43;33.00;1.00
17687;DHT22;8962;52.538;13.266;2023-07-13T14:23:12;33.00;1.00
17687;DHT22;8962;52.538;13.266;2023-07-13T14:25:39;33.40;1.00
17687;DHT22;8962;52.538;13.266;2023-07-13T14:28:20;33.40;1.00
17687;DHT22;8962;52.538;13.266;2023-07-13T14:30:49;33.10;1.00
17687;DHT22;8962;52.538;13.266;2023-07-13T14:33:16;33.90;1.00
17687;DHT22;8962;52.538;13.266;2023-07-13T14:35:44;34.30;1.00
17687;DHT22;8962;52.538;13.266;2023-07-13T14:38:13;33.90;1.00
17687;DHT22;8962;52.538;13.266;2023-07-13T14:40:43;33.70;1.00
17687;DHT22;8962;52.538;13.266;2023-07-13T14:43:11;34.00;1.00
17687;DHT22;8962;52.538;13.266;2023-07-13T14:45:41;33.80;1.00
17687;DHT22;8962;52.538;13.266;2023-07-13T14:48:25;33.10;1.00
17687;DHT22;8962;52.538;13.266;2023-07-13T14:50:55;33.20;1.00
17687;DHT22;8962;52.538;13.266;2023-07-13T14:53:24;33.70;1.00
17687;DHT22;8962;52.538;13.266;2023-07-13T14:55:52;33.60;1.00
17687;DHT22;8962;52.538;13.266;2023-07-13T14:58:19;33.90;1.00
17687;DHT22;8962;52.538;13.266;2023-07-13T15:00:46;34.40;1.00
17687;DHT22;8962;52.538;13.266;2023-07-13T15:03:19;34.10;1.00
17687;DHT22;8962;52.538;13.266;2023-07-13T15:05:48;34.40;1.00
17687;DHT22;8962;52.538;13.266;2023-07-13T15:08:15;34.80;1.00
17687;DHT22;8962;52.538;13.266;2023-07-13T15:10:42;35.20;1.00
17687;DHT22;8962;52.538;13.266;2023-07-13T15:13:15;35.40;1.00
17687;DHT22;8962;52.538;13.266;2023-07-13T15:15:45;35.90;1.00
17687;DHT22;8962;52.538;13.266;2023-07-13T15:18:15;35.20;1.00
17687;DHT22;8962;52.538;13.266;2023-07-13T15:20:44;35.50;1.00
17687;DHT22;8962;52.538;13.266;2023-07-13T15:23:13;35.90;1.00
17687;DHT22;8962;52.538;13.266;2023-07-13T15:25:41;35.90;1.00
17687;DHT22;8962;52.538;13.266;2023-07-13T15:28:10;35.00;1.00
17687;DHT22;8962;52.538;13.266;2023-07-13T15:30:41;34.60;1.00
17687;DHT22;8962;52.538;13.266;2023-07-13T15:33:13;34.60;1.00
17687;DHT22;8962;52.538;13.266;2023-07-13T15:35:44;34.50;1.00
17687;DHT22;8962;52.538;13.266;2023-07-13T15:38:15;34.90;1.00
17687;DHT22;8962;52.538;13.266;2023-07-13T15:40:43;34.70;1.00
17687;DHT22;8962;52.538;13.266;2023-07-13T15:43:11;34.80;1.00
17687;DHT22;8962;52.538;13.266;2023-07-13T15:45:39;34.30;1.00
17687;DHT22;8962;52.538;13.266;2023-07-13T15:48:13;34.60;1.00
17687;DHT22;8962;52.538;13.266;2023-07-13T15:50:46;34.80;1.00
17687;DHT22;8962;52.538;13.266;2023-07-13T15:53:16;35.10;1.00
17687;DHT22;8962;52.538;13.266;2023-07-13T15:55:46;34.30;1.00
17687;DHT22;8962;52.538;13.266;2023-07-13T15:58:13;32.70;1.00
17687;DHT22;8962;52.538;13.266;2023-07-13T16:00:41;31.90;1.00
17687;DHT22;8962;52.538;13.266;2023-07-13T16:03:08;31.70;1.00
17687;DHT22;8962;52.538;13.266;2023-07-13T16:05:36;32.50;1.00